createdAt,value
2018-12-07T00:01:28.276Z,5.34
2018-12-07T00:03:55.703Z,5.45
2018-12-07T00:06:23.135Z,5.45
2018-12-07T00:08:50.556Z,5.48
2018-12-07T00:11:17.984Z,5.48
2018-12-07T00:13:45.412Z,5.46
2018-12-07T00:16:12.844Z,5.43
2018-12-07T00:18:40.285Z,5.48
2018-12-07T00:21:07.709Z,5.48
2018-12-07T00:23:35.131Z,5.51
2018-12-07T00:26:02.560Z,5.67
2018-12-07T00:28:29.988Z,5.72
2018-12-07T00:30:57.414Z,5.73
2018-12-07T00:33:24.842Z,5.67
2018-12-07T00:35:52.258Z,5.66
2018-12-07T00:38:19.691Z,5.65
2018-12-07T00:40:47.111Z,5.69
2018-12-07T00:43:14.554Z,5.77
2018-12-07T00:45:41.983Z,5.72
2018-12-07T00:48:09.420Z,5.76
2018-12-07T00:50:36.852Z,5.71
2018-12-07T00:53:04.283Z,5.75
2018-12-07T00:55:31.714Z,5.75
2018-12-07T00:57:59.212Z,5.71
2018-12-07T01:00:26.688Z,5.77
2018-12-07T01:02:54.122Z,5.81
2018-12-07T01:05:21.561Z,5.84
2018-12-07T01:07:48.987Z,5.81
2018-12-07T01:10:16.412Z,5.81
2018-12-07T01:12:43.845Z,5.96
2018-12-07T01:15:11.260Z,5.87
2018-12-07T01:17:38.697Z,5.92
2018-12-07T01:20:06.150Z,6.01
2018-12-07T01:22:33.607Z,6.04
2018-12-07T01:25:01.041Z,6.11
2018-12-07T01:27:28.467Z,6.14
2018-12-07T01:29:55.896Z,6.05
2018-12-07T01:32:23.403Z,5.99
2018-12-07T01:34:50.872Z,6.03
2018-12-07T01:37:18.307Z,6.00
2018-12-07T01:39:45.736Z,5.95
2018-12-07T01:42:13.176Z,6.04
2018-12-07T01:44:40.607Z,6.04
2018-12-07T01:47:08.048Z,6.07
2018-12-07T01:49:35.473Z,6.13
2018-12-07T01:52:02.933Z,6.19
2018-12-07T01:54:30.360Z,6.14
2018-12-07T01:56:57.784Z,6.18
2018-12-07T01:59:25.222Z,6.15
2018-12-07T02:01:52.715Z,6.08
2018-12-07T02:04:20.291Z,6.11
2018-12-07T02:06:47.706Z,6.13
2018-12-07T02:09:15.148Z,6.14
2018-12-07T02:11:42.565Z,6.15
2018-12-07T02:14:10.000Z,6.21
2018-12-07T02:16:37.455Z,6.14
2018-12-07T02:19:04.933Z,6.11
2018-12-07T02:21:32.441Z,6.05
2018-12-07T02:23:59.863Z,6.07
2018-12-07T02:26:27.284Z,6.17
2018-12-07T02:28:54.703Z,6.05
2018-12-07T02:31:22.143Z,6.13
2018-12-07T02:33:49.575Z,6.06
2018-12-07T02:36:16.997Z,6.01
2018-12-07T02:38:44.424Z,6.06
2018-12-07T02:41:11.851Z,6.14
2018-12-07T02:43:39.357Z,6.04
2018-12-07T02:46:06.796Z,6.07
2018-12-07T02:48:34.219Z,6.07
2018-12-07T02:51:01.650Z,6.07
2018-12-07T02:53:29.146Z,6.04
2018-12-07T02:55:56.572Z,6.13
2018-12-07T02:58:24.019Z,6.13
2018-12-07T03:00:51.464Z,6.07
2018-12-07T03:03:18.970Z,6.12
2018-12-07T03:05:46.403Z,6.05
2018-12-07T03:08:13.931Z,6.20
2018-12-07T03:10:41.408Z,6.27
2018-12-07T03:13:08.840Z,6.25
2018-12-07T03:15:36.270Z,6.20
2018-12-07T03:18:03.712Z,6.27
2018-12-07T03:20:31.141Z,6.29
2018-12-07T03:22:58.576Z,6.36
2018-12-07T03:25:26.000Z,6.30
2018-12-07T03:27:53.437Z,6.31
2018-12-07T03:30:21.006Z,6.40
2018-12-07T03:32:48.492Z,6.33
2018-12-07T03:35:15.928Z,6.41
2018-12-07T03:37:43.352Z,6.48
2018-12-07T03:40:10.808Z,6.41
2018-12-07T03:42:38.279Z,6.46
2018-12-07T03:45:05.715Z,6.51
2018-12-07T03:47:33.151Z,6.45
2018-12-07T03:50:00.586Z,6.54
2018-12-07T03:52:28.005Z,6.47
2018-12-07T03:54:55.555Z,6.53
2018-12-07T03:57:22.949Z,6.59
2018-12-07T03:59:50.460Z,6.55
2018-12-07T04:02:18.064Z,6.64
2018-12-07T04:04:45.496Z,6.61
2018-12-07T04:07:12.907Z,6.51
2018-12-07T04:09:40.334Z,6.53
2018-12-07T04:12:07.755Z,6.55
2018-12-07T04:14:35.192Z,6.53
2018-12-07T04:17:02.622Z,6.58
2018-12-07T04:19:30.066Z,6.62
2018-12-07T04:21:57.484Z,6.64
2018-12-07T04:24:24.952Z,6.76
2018-12-07T04:26:52.396Z,6.69
2018-12-07T04:29:19.838Z,6.78
2018-12-07T04:31:47.328Z,6.80
2018-12-07T04:34:14.739Z,6.82
2018-12-07T04:36:42.171Z,6.78
2018-12-07T04:39:09.584Z,6.83
2018-12-07T04:41:37.012Z,6.82
2018-12-07T04:44:04.427Z,6.87
2018-12-07T04:46:31.844Z,6.83
2018-12-07T04:48:59.269Z,6.83
2018-12-07T04:51:26.691Z,6.85
2018-12-07T04:53:54.121Z,6.87
2018-12-07T04:56:21.546Z,6.90
2018-12-07T04:58:49.043Z,6.92
2018-12-07T05:01:16.501Z,6.89
2018-12-07T05:03:43.984Z,6.90
2018-12-07T05:06:11.400Z,6.96
2018-12-07T05:08:38.828Z,6.94
2018-12-07T05:11:06.250Z,6.94
2018-12-07T05:13:33.769Z,6.85
2018-12-07T05:16:01.207Z,6.90
2018-12-07T05:18:28.671Z,6.91
2018-12-07T05:20:56.132Z,6.98
2018-12-07T05:23:23.544Z,6.88
2018-12-07T05:25:51.046Z,7.01
2018-12-07T05:28:18.468Z,7.03
2018-12-07T05:30:45.891Z,7.09
2018-12-07T05:33:13.321Z,7.08
2018-12-07T05:35:40.743Z,7.05
2018-12-07T05:38:08.205Z,7.13
2018-12-07T05:40:35.635Z,7.21
2018-12-07T05:43:03.052Z,7.20
2018-12-07T05:45:30.479Z,7.14
2018-12-07T05:47:57.892Z,7.20
2018-12-07T05:50:25.327Z,7.24
2018-12-07T05:52:52.784Z,7.24
2018-12-07T05:55:20.214Z,7.26
2018-12-07T05:57:47.644Z,7.45
2018-12-07T06:00:15.067Z,7.37
2018-12-07T06:02:42.484Z,7.42
2018-12-07T06:05:09.983Z,7.43
2018-12-07T06:07:37.487Z,7.44
2018-12-07T06:10:04.906Z,7.37
2018-12-07T06:12:32.400Z,7.42
2018-12-07T06:14:59.840Z,7.46
2018-12-07T06:17:27.308Z,7.49
2018-12-07T06:19:54.778Z,7.48
2018-12-07T06:22:22.191Z,7.56
2018-12-07T06:24:49.683Z,7.55
2018-12-07T06:27:17.564Z,7.59
2018-12-07T06:29:45.030Z,7.54
2018-12-07T06:32:12.595Z,7.59
2018-12-07T06:34:40.029Z,7.57
2018-12-07T06:37:07.443Z,7.50
2018-12-07T06:39:34.884Z,7.39
2018-12-07T06:42:02.401Z,7.32
2018-12-07T06:44:29.864Z,7.40
2018-12-07T06:46:57.314Z,7.65
2018-12-07T06:49:24.742Z,7.64
2018-12-07T06:51:52.335Z,7.49
2018-12-07T06:54:19.807Z,7.58
2018-12-07T06:56:48.088Z,7.68
2018-12-07T06:59:15.507Z,7.54
2018-12-07T07:01:42.986Z,7.47
2018-12-07T07:04:10.548Z,7.40
2018-12-07T07:06:37.976Z,7.50
2018-12-07T07:09:05.447Z,7.56
2018-12-07T07:11:32.927Z,7.46
2018-12-07T07:14:00.432Z,7.61
2018-12-07T07:16:27.932Z,7.60
2018-12-07T07:18:55.359Z,7.54
2018-12-07T07:21:22.870Z,7.60
2018-12-07T07:23:50.290Z,7.62
2018-12-07T07:26:17.719Z,7.53
2018-12-07T07:28:45.995Z,7.54
2018-12-07T07:31:13.424Z,7.57
2018-12-07T07:33:41.131Z,7.52
2018-12-07T07:36:08.624Z,7.53
2018-12-07T07:38:36.071Z,7.53
2018-12-07T07:41:03.507Z,7.54
2018-12-07T07:43:30.931Z,7.54
2018-12-07T07:45:58.356Z,7.45
2018-12-07T07:48:25.803Z,7.53
2018-12-07T07:50:53.228Z,7.52
2018-12-07T07:53:20.728Z,7.65
2018-12-07T07:55:48.158Z,7.62
2018-12-07T07:58:15.631Z,7.59
2018-12-07T08:00:43.096Z,7.53
2018-12-07T08:03:10.525Z,7.53
2018-12-07T08:05:38.009Z,7.54
2018-12-07T08:08:05.491Z,7.51
2018-12-07T08:10:32.924Z,7.47
2018-12-07T08:13:00.377Z,7.60
2018-12-07T08:15:27.803Z,7.64
2018-12-07T08:17:55.234Z,7.59
2018-12-07T08:20:22.657Z,7.59
2018-12-07T08:22:50.091Z,7.69
2018-12-07T08:25:17.568Z,7.77
2018-12-07T08:27:44.988Z,7.69
2018-12-07T08:30:12.467Z,7.65
2018-12-07T08:32:39.895Z,7.70
2018-12-07T08:35:07.367Z,7.70
2018-12-07T08:37:34.786Z,7.61
2018-12-07T08:40:02.219Z,7.59
2018-12-07T08:42:29.653Z,7.59
2018-12-07T08:44:57.084Z,7.61
2018-12-07T08:47:24.575Z,7.68
2018-12-07T08:49:57.342Z,7.71
2018-12-07T08:52:24.860Z,7.79
2018-12-07T08:54:52.281Z,7.92
2018-12-07T08:57:19.704Z,7.73
2018-12-07T08:59:47.195Z,7.78
2018-12-07T09:02:14.656Z,7.76
2018-12-07T09:04:42.146Z,7.83
2018-12-07T09:07:09.667Z,7.88
2018-12-07T09:09:37.086Z,7.93
2018-12-07T09:12:05.500Z,7.84
2018-12-07T09:14:33.643Z,7.76
2018-12-07T09:17:01.136Z,7.86
2018-12-07T09:19:28.597Z,7.83
2018-12-07T09:21:56.027Z,7.87
2018-12-07T09:24:24.244Z,7.84
2018-12-07T09:26:51.680Z,7.89
2018-12-07T09:29:19.144Z,7.92
2018-12-07T09:31:46.603Z,7.95
2018-12-07T09:34:14.155Z,8.02
2018-12-07T09:36:41.636Z,8.02
2018-12-07T09:39:09.060Z,7.99
2018-12-07T09:41:36.479Z,7.94
2018-12-07T09:44:03.989Z,8.07
2018-12-07T09:46:31.444Z,8.15
2018-12-07T09:48:58.899Z,8.03
2018-12-07T09:51:26.332Z,8.11
2018-12-07T09:53:54.681Z,8.06
2018-12-07T09:56:22.115Z,8.14
2018-12-07T09:58:50.152Z,8.20
2018-12-07T10:01:18.998Z,8.24
2018-12-07T10:03:46.588Z,8.20
2018-12-07T10:06:14.076Z,8.18
2018-12-07T10:08:41.507Z,8.17
2018-12-07T10:11:09.004Z,8.19
2018-12-07T10:13:36.425Z,8.13
2018-12-07T10:16:03.907Z,8.17
2018-12-07T10:18:32.189Z,8.29
2018-12-07T10:20:59.663Z,8.21
2018-12-07T10:23:27.090Z,8.26
2018-12-07T10:25:54.523Z,8.26
2018-12-07T10:28:21.980Z,8.28
2018-12-07T10:30:49.396Z,8.28
2018-12-07T10:33:16.936Z,8.33
2018-12-07T10:35:45.087Z,8.41
2018-12-07T10:38:12.575Z,8.31
2018-12-07T10:40:40.001Z,8.36
2018-12-07T10:43:07.481Z,8.48
2018-12-07T10:45:34.931Z,8.42
2018-12-07T10:48:02.363Z,8.57
2018-12-07T10:50:29.928Z,8.58
2018-12-07T10:52:57.356Z,8.53
2018-12-07T10:55:24.784Z,8.57
2018-12-07T10:57:52.211Z,8.73
2018-12-07T11:00:25.028Z,8.75
2018-12-07T11:02:57.839Z,8.83
2018-12-07T11:05:30.651Z,8.79
2018-12-07T11:09:01.216Z,8.86
2018-12-07T11:11:34.052Z,8.88
2018-12-07T11:14:06.836Z,8.86
2018-12-07T11:16:39.599Z,8.79
2018-12-07T11:19:12.393Z,8.82
2018-12-07T11:21:45.082Z,8.88
2018-12-07T11:24:17.937Z,8.90
2018-12-07T11:26:50.837Z,8.88
2018-12-07T11:30:27.232Z,8.94
2018-12-07T11:32:59.937Z,8.92
2018-12-07T11:35:30.841Z,8.82
2018-12-07T11:37:58.303Z,8.83
2018-12-07T11:40:25.786Z,8.81
2018-12-07T11:42:53.261Z,8.78
2018-12-07T11:45:20.695Z,8.81
2018-12-07T11:47:48.112Z,8.79
2018-12-07T11:50:15.632Z,8.76
2018-12-07T11:52:43.083Z,8.78
2018-12-07T11:55:10.576Z,8.86
2018-12-07T11:57:37.999Z,8.74
2018-12-07T12:00:05.467Z,8.85
2018-12-07T12:02:32.909Z,8.82
2018-12-07T12:05:01.108Z,8.71
2018-12-07T12:07:28.539Z,8.72
2018-12-07T12:09:56.015Z,8.68
2018-12-07T12:12:23.448Z,8.69
2018-12-07T12:14:50.868Z,8.72
2018-12-07T12:17:18.293Z,8.58
2018-12-07T12:19:45.724Z,8.63
2018-12-07T12:22:13.155Z,8.68
2018-12-07T12:24:40.598Z,8.65
2018-12-07T12:27:08.111Z,8.64
2018-12-07T12:29:35.531Z,8.68
2018-12-07T12:32:03.057Z,8.59
2018-12-07T12:34:31.204Z,8.64
2018-12-07T12:36:59.399Z,8.63
2018-12-07T12:39:26.824Z,8.56
2018-12-07T12:41:54.498Z,8.56
2018-12-07T12:44:21.933Z,8.62
2018-12-07T12:46:49.360Z,8.60
2018-12-07T12:49:16.786Z,8.59
2018-12-07T12:51:44.212Z,8.67
2018-12-07T12:54:11.648Z,8.57
2018-12-07T12:56:39.071Z,8.61
2018-12-07T12:59:06.547Z,8.53
2018-12-07T13:01:33.969Z,8.65
2018-12-07T13:04:01.399Z,8.63
2018-12-07T13:06:29.306Z,8.63
2018-12-07T13:08:56.831Z,8.69
2018-12-07T13:11:24.596Z,8.64
2018-12-07T13:13:52.055Z,8.60
2018-12-07T13:16:19.480Z,8.64
2018-12-07T13:18:46.968Z,8.73
2018-12-07T13:21:14.393Z,8.68
2018-12-07T13:23:41.994Z,8.64
2018-12-07T13:26:09.406Z,8.63
2018-12-07T13:28:36.908Z,8.69
2018-12-07T13:31:04.431Z,8.62
2018-12-07T13:33:31.924Z,8.64
2018-12-07T13:35:59.360Z,8.67
2018-12-07T13:38:26.783Z,8.70
2018-12-07T13:40:54.297Z,8.59
2018-12-07T13:43:21.814Z,8.58
2018-12-07T13:45:49.368Z,8.54
2018-12-07T13:48:16.863Z,8.56
2018-12-07T13:50:44.393Z,8.61
2018-12-07T13:53:12.031Z,8.60
2018-12-07T13:55:39.619Z,8.69
2018-12-07T13:58:07.289Z,8.83
2018-12-07T14:00:34.823Z,8.67
2018-12-07T14:03:02.253Z,8.78
2018-12-07T14:05:32.422Z,8.78
2018-12-07T14:07:59.095Z,8.69
2018-12-07T14:10:26.571Z,8.75
2018-12-07T14:12:54.060Z,8.77
2018-12-07T14:15:21.793Z,8.81
2018-12-07T14:17:49.602Z,8.82
2018-12-07T14:20:17.229Z,8.81
2018-12-07T14:22:44.636Z,8.79
2018-12-07T14:25:12.242Z,8.81
2018-12-07T14:27:39.826Z,8.92
2018-12-07T14:30:07.372Z,8.96
2018-12-07T14:32:34.877Z,9.03
2018-12-07T14:35:02.624Z,8.98
2018-12-07T14:37:30.298Z,9.04
2018-12-07T14:39:57.774Z,9.02
2018-12-07T14:42:25.384Z,8.99
2018-12-07T14:44:52.933Z,9.01
2018-12-07T14:47:20.435Z,8.95
2018-12-07T14:49:48.157Z,8.93
2018-12-07T14:52:15.776Z,8.95
2018-12-07T14:54:43.403Z,9.07
2018-12-07T14:57:11.110Z,9.06
2018-12-07T14:59:38.746Z,9.13
2018-12-07T15:02:06.285Z,9.01
2018-12-07T15:04:33.763Z,9.01
2018-12-07T15:07:01.315Z,9.03
2018-12-07T15:09:28.907Z,8.98
2018-12-07T15:11:56.526Z,9.06
2018-12-07T15:14:23.987Z,9.06
2018-12-07T15:16:51.490Z,9.08
2018-12-07T15:19:19.052Z,9.02
2018-12-07T15:21:46.539Z,9.04
2018-12-07T15:24:13.997Z,9.05
2018-12-07T15:26:41.516Z,9.01
2018-12-07T15:29:09.042Z,8.95
2018-12-07T15:31:36.549Z,8.86
2018-12-07T15:34:04.115Z,8.84
2018-12-07T15:36:31.574Z,8.84
2018-12-07T15:38:59.031Z,8.91
2018-12-07T15:41:26.696Z,8.95
2018-12-07T15:43:54.315Z,8.90
2018-12-07T15:46:21.865Z,8.81
2018-12-07T15:48:50.204Z,8.78
2018-12-07T15:51:17.694Z,8.79
2018-12-07T15:53:45.286Z,8.91
2018-12-07T15:56:12.793Z,8.94
2018-12-07T15:58:40.233Z,8.97
2018-12-07T16:01:07.813Z,8.94
2018-12-07T16:03:35.292Z,8.94
2018-12-07T16:06:02.877Z,8.82
2018-12-07T16:08:30.576Z,8.97
2018-12-07T16:10:58.102Z,8.99
2018-12-07T16:13:25.821Z,8.96
2018-12-07T16:15:53.746Z,8.83
2018-12-07T16:18:21.263Z,8.92
2018-12-07T16:20:49.065Z,9.25
2018-12-07T16:23:16.596Z,9.68
2018-12-07T16:25:44.139Z,9.42
2018-12-07T16:28:11.961Z,9.94
2018-12-07T16:30:39.698Z,9.80
2018-12-07T16:33:07.337Z,9.96
2018-12-07T16:35:35.012Z,10.15
2018-12-07T16:38:02.538Z,10.12
2018-12-07T16:40:30.209Z,10.46
2018-12-07T16:42:57.885Z,10.48
2018-12-07T16:45:25.670Z,10.50
2018-12-07T16:47:53.515Z,10.61
2018-12-07T16:50:21.189Z,10.47
2018-12-07T16:52:48.788Z,10.14
2018-12-07T16:55:16.345Z,10.36
2018-12-07T16:57:43.960Z,10.63
2018-12-07T17:00:11.458Z,10.45
2018-12-07T17:02:39.149Z,10.47
2018-12-07T17:05:06.657Z,10.47
2018-12-07T17:07:34.205Z,10.55
2018-12-07T17:10:02.101Z,10.61
2018-12-07T17:12:29.772Z,10.62
2018-12-07T17:14:57.419Z,10.55
2018-12-07T17:17:25.177Z,10.58
2018-12-07T17:19:52.687Z,10.49
2018-12-07T17:22:20.164Z,10.61
2018-12-07T17:24:47.674Z,10.51
2018-12-07T17:27:15.166Z,10.62
2018-12-07T17:29:42.785Z,10.50
2018-12-07T17:32:10.238Z,10.41
2018-12-07T17:34:37.744Z,10.38
2018-12-07T17:37:05.218Z,10.36
2018-12-07T17:39:32.734Z,10.41
2018-12-07T17:42:00.284Z,10.41
2018-12-07T17:44:27.800Z,10.39
2018-12-07T17:46:55.484Z,10.45
2018-12-07T17:49:22.988Z,10.32
2018-12-07T17:51:50.491Z,10.36
2018-12-07T17:54:18.022Z,10.33
2018-12-07T17:56:45.799Z,10.11
2018-12-07T17:59:13.376Z,10.45
2018-12-07T18:01:40.869Z,10.42
2018-12-07T18:04:08.339Z,10.51
2018-12-07T18:06:35.995Z,10.49
2018-12-07T18:09:03.715Z,10.44
2018-12-07T18:11:31.366Z,10.23
2018-12-07T18:13:58.916Z,10.24
2018-12-07T18:16:26.545Z,10.07
2018-12-07T18:18:54.278Z,10.18
2018-12-07T18:21:21.890Z,10.27
2018-12-07T18:23:50.419Z,10.34
2018-12-07T18:26:18.335Z,10.16
2018-12-07T18:28:45.946Z,10.18
2018-12-07T18:31:13.439Z,10.16
2018-12-07T18:33:40.998Z,9.98
2018-12-07T18:36:08.518Z,10.01
2018-12-07T18:38:35.973Z,9.78
2018-12-07T18:41:03.580Z,9.92
2018-12-07T18:43:31.741Z,10.00
2018-12-07T18:45:59.306Z,10.01
2018-12-07T18:48:26.866Z,9.85
2018-12-07T18:50:54.565Z,9.97
2018-12-07T18:53:22.194Z,10.00
2018-12-07T18:55:50.045Z,9.91
2018-12-07T18:58:18.665Z,9.90
2018-12-07T19:00:46.524Z,9.81
2018-12-07T19:03:14.066Z,9.84
2018-12-07T19:05:41.574Z,9.96
2018-12-07T19:08:09.942Z,9.94
2018-12-07T19:10:37.627Z,9.72
2018-12-07T19:13:05.247Z,9.57
2018-12-07T19:15:32.658Z,9.43
2018-12-07T19:18:00.077Z,9.42
2018-12-07T19:20:27.766Z,9.36
2018-12-07T19:22:55.348Z,9.40
2018-12-07T19:25:22.829Z,9.27
2018-12-07T19:27:50.392Z,9.17
2018-12-07T19:30:17.977Z,9.12
2018-12-07T19:32:45.740Z,9.11
2018-12-07T19:35:13.339Z,9.17
2018-12-07T19:37:40.982Z,9.15
2018-12-07T19:40:08.667Z,9.14
2018-12-07T19:42:36.153Z,9.21
2018-12-07T19:45:04.134Z,9.27
2018-12-07T19:47:31.619Z,9.29
2018-12-07T19:49:59.418Z,9.29
2018-12-07T19:52:27.117Z,9.17
2018-12-07T19:54:55.648Z,9.07
2018-12-07T19:57:23.277Z,8.97
2018-12-07T19:59:51.728Z,8.97
2018-12-07T20:02:19.774Z,8.90
2018-12-07T20:04:47.470Z,9.00
2018-12-07T20:07:15.010Z,9.24
2018-12-07T20:09:42.794Z,9.13
2018-12-07T20:12:10.590Z,9.03
2018-12-07T20:14:38.385Z,9.01
2018-12-07T20:17:06.153Z,9.06
2018-12-07T20:19:33.584Z,9.27
2018-12-07T20:22:01.016Z,9.46
2018-12-07T20:24:28.441Z,9.36
2018-12-07T20:26:55.940Z,9.64
2018-12-07T20:29:23.443Z,9.64
2018-12-07T20:31:50.974Z,9.56
2018-12-07T20:34:18.524Z,9.82
2018-12-07T20:36:46.230Z,9.86
2018-12-07T20:39:13.804Z,10.10
2018-12-07T20:41:41.257Z,10.02
2018-12-07T20:44:08.753Z,9.93
2018-12-07T20:46:36.308Z,10.07
2018-12-07T20:49:04.298Z,9.99
2018-12-07T20:51:31.873Z,10.03
2018-12-07T20:53:59.570Z,10.19
2018-12-07T20:56:27.298Z,9.98
2018-12-07T20:58:55.007Z,9.80
2018-12-07T21:01:22.666Z,9.56
2018-12-07T21:03:53.949Z,9.41
2018-12-07T21:07:27.788Z,9.25
2018-12-07T21:09:57.895Z,9.11
2018-12-07T21:12:25.368Z,9.12
2018-12-07T21:14:52.831Z,9.13
2018-12-07T21:17:22.942Z,9.15
2018-12-07T21:19:51.351Z,9.20
2018-12-07T21:22:19.262Z,9.18
2018-12-07T21:24:47.252Z,9.25
2018-12-07T21:27:14.749Z,9.25
2018-12-07T21:29:42.425Z,9.30
2018-12-07T21:32:09.907Z,9.26
2018-12-07T21:34:37.537Z,9.28
2018-12-07T21:37:05.185Z,9.16
2018-12-07T21:39:32.792Z,9.11
2018-12-07T21:42:00.545Z,9.13
2018-12-07T21:44:28.136Z,9.30
2018-12-07T21:46:55.676Z,9.33
2018-12-07T21:49:23.340Z,9.60
2018-12-07T21:51:50.815Z,9.52
2018-12-07T21:54:18.474Z,9.74
2018-12-07T21:56:46.012Z,10.12
2018-12-07T22:01:47.240Z,10.25
2018-12-07T22:04:14.987Z,10.37
2018-12-07T22:06:42.856Z,10.64
2018-12-07T22:09:10.667Z,10.59
2018-12-07T22:11:38.340Z,10.69
2018-12-07T22:14:05.755Z,10.95
2018-12-07T22:16:33.260Z,10.99
2018-12-07T22:19:01.118Z,11.01
2018-12-07T22:21:28.540Z,10.93
2018-12-07T22:23:56.242Z,10.90
2018-12-07T22:26:23.986Z,10.89
2018-12-07T22:28:51.840Z,10.83
2018-12-07T22:31:19.589Z,10.92
2018-12-07T22:33:47.273Z,10.94
2018-12-07T22:36:14.860Z,11.07
2018-12-07T22:38:42.340Z,11.01
2018-12-07T22:41:09.851Z,11.06
2018-12-07T22:43:37.313Z,11.20
2018-12-07T22:46:04.799Z,11.17
2018-12-07T22:48:32.457Z,11.04
2018-12-07T22:50:59.934Z,11.10
2018-12-07T22:53:27.476Z,11.27
2018-12-07T22:55:54.936Z,11.49
2018-12-07T22:58:22.387Z,11.50
2018-12-07T23:00:49.844Z,11.47
2018-12-07T23:03:17.304Z,11.39
2018-12-07T23:05:44.728Z,11.34
2018-12-07T23:08:12.222Z,11.35
2018-12-07T23:10:39.644Z,11.34
2018-12-07T23:13:07.072Z,11.24
2018-12-07T23:15:34.506Z,11.18
2018-12-07T23:18:01.948Z,11.19
2018-12-07T23:20:29.367Z,11.21
2018-12-07T23:22:56.864Z,11.22
2018-12-07T23:25:24.320Z,11.21
2018-12-07T23:27:51.739Z,11.37
2018-12-07T23:30:19.532Z,11.39
2018-12-07T23:32:46.953Z,11.46
2018-12-07T23:35:14.382Z,11.41
2018-12-07T23:37:41.797Z,11.45
2018-12-07T23:40:09.264Z,11.40
2018-12-07T23:42:36.693Z,11.52
2018-12-07T23:45:04.288Z,11.39
2018-12-07T23:47:31.786Z,11.53
2018-12-07T23:49:59.204Z,11.42
2018-12-07T23:52:26.761Z,11.53
2018-12-07T23:54:54.215Z,11.48
2018-12-07T23:57:21.638Z,11.46
2018-12-07T23:59:49.058Z,11.63
